createdAt,value
2023-04-15T00:01:29.150Z,5.71
2023-04-15T00:04:03.080Z,5.66
2023-04-15T00:06:29.843Z,5.59
2023-04-15T00:09:04.034Z,5.55
2023-04-15T00:11:30.738Z,5.48
2023-04-15T00:14:04.948Z,5.44
2023-04-15T00:16:31.758Z,5.41
2023-04-15T00:18:58.694Z,5.35
2023-04-15T00:21:32.191Z,5.36
2023-04-15T00:24:04.997Z,5.33
2023-04-15T00:26:31.654Z,5.21
2023-04-15T00:29:05.088Z,5.20
2023-04-15T00:31:32.312Z,5.13
2023-04-15T00:33:59.947Z,5.12
2023-04-15T00:36:33.081Z,5.13
2023-04-15T00:39:00.216Z,5.01
2023-04-15T00:41:33.977Z,5.00
2023-04-15T00:44:08.188Z,4.99
2023-04-15T00:46:45.992Z,5.05
2023-04-15T00:49:13.440Z,5.04
2023-04-15T00:51:46.967Z,5.03
2023-04-15T00:54:14.092Z,5.12
2023-04-15T00:56:47.957Z,5.17
2023-04-15T00:59:15.304Z,5.23
2023-04-15T01:01:49.137Z,5.24
2023-04-15T01:04:22.632Z,5.38
2023-04-15T01:06:56.063Z,5.43
2023-04-15T01:09:22.921Z,5.48
2023-04-15T01:11:49.695Z,5.51
2023-04-15T01:14:23.040Z,5.57
2023-04-15T01:16:49.887Z,5.60
2023-04-15T01:19:24.987Z,5.61
2023-04-15T01:21:52.167Z,5.59
2023-04-15T01:24:26.048Z,5.58
2023-04-15T01:26:52.903Z,5.56
2023-04-15T01:29:27.040Z,5.50
2023-04-15T01:31:56.229Z,5.46
2023-04-15T01:34:30.047Z,5.44
2023-04-15T01:36:56.802Z,5.39
2023-04-15T01:39:23.710Z,5.36
2023-04-15T01:41:57.029Z,5.33
2023-04-15T01:44:30.167Z,5.27
2023-04-15T01:47:03.047Z,5.23
2023-04-15T01:49:29.904Z,5.22
2023-04-15T01:52:03.018Z,5.23
2023-04-15T01:54:29.910Z,5.23
2023-04-15T01:57:04.004Z,5.22
2023-04-15T01:59:31.605Z,5.24
2023-04-15T02:02:05.084Z,5.25
2023-04-15T02:04:38.012Z,5.29
2023-04-15T02:07:04.790Z,5.26
2023-04-15T02:09:38.015Z,5.25
2023-04-15T02:12:06.166Z,5.26
2023-04-15T02:14:39.028Z,5.23
2023-04-15T02:17:08.767Z,5.19
2023-04-15T02:19:43.090Z,5.15
2023-04-15T02:22:11.669Z,5.13
2023-04-15T02:24:45.014Z,5.13
2023-04-15T02:27:18.372Z,5.04
2023-04-15T02:29:53.043Z,5.06
2023-04-15T02:32:20.385Z,5.05
2023-04-15T02:34:54.053Z,5.02
2023-04-15T02:37:21.146Z,5.02
2023-04-15T02:39:48.010Z,4.97
2023-04-15T02:42:21.110Z,4.95
2023-04-15T02:44:47.933Z,4.96
2023-04-15T02:47:22.046Z,4.95
2023-04-15T02:49:48.829Z,4.97
2023-04-15T02:52:22.011Z,4.93
2023-04-15T02:54:48.875Z,4.90
2023-04-15T02:57:22.046Z,4.91
2023-04-15T02:59:48.803Z,4.88
2023-04-15T03:02:22.211Z,4.83
2023-04-15T03:04:56.057Z,4.83
2023-04-15T03:07:29.078Z,4.79
2023-04-15T03:09:55.782Z,4.69
2023-04-15T03:12:29.084Z,4.68
2023-04-15T03:15:02.108Z,4.66
2023-04-15T03:17:28.901Z,4.64
2023-04-15T03:20:02.034Z,4.61
2023-04-15T03:22:28.723Z,4.57
2023-04-15T03:25:02.060Z,4.53
2023-04-15T03:27:28.789Z,4.43
2023-04-15T03:30:03.129Z,4.36
2023-04-15T03:32:29.839Z,4.40
2023-04-15T03:34:56.540Z,4.38
2023-04-15T03:37:30.094Z,4.28
2023-04-15T03:39:56.884Z,4.19
2023-04-15T03:42:30.102Z,4.17
2023-04-15T03:45:04.401Z,4.16
2023-04-15T03:47:38.172Z,4.14
2023-04-15T03:50:05.298Z,4.12
2023-04-15T03:52:38.068Z,4.11
2023-04-15T03:55:05.461Z,4.10
2023-04-15T03:57:39.130Z,4.09
2023-04-15T04:00:07.268Z,4.06
2023-04-15T04:02:40.274Z,4.02
2023-04-15T04:05:07.299Z,4.02
2023-04-15T04:07:40.024Z,4.01
2023-04-15T04:10:07.336Z,4.03
2023-04-15T04:12:34.005Z,4.03
2023-04-15T04:15:07.090Z,4.02
2023-04-15T04:17:40.242Z,4.03
2023-04-15T04:20:14.094Z,4.00
2023-04-15T04:22:41.550Z,3.96
2023-04-15T04:25:17.135Z,3.93
2023-04-15T04:27:43.828Z,3.89
2023-04-15T04:30:17.147Z,3.83
2023-04-15T04:32:43.967Z,3.77
2023-04-15T04:35:18.179Z,3.71
2023-04-15T04:37:45.048Z,3.65
2023-04-15T04:40:35.224Z,3.57
2023-04-15T04:43:15.092Z,3.51
2023-04-15T04:45:48.240Z,3.59
2023-04-15T04:48:21.086Z,3.57
2023-04-15T04:50:54.135Z,3.57
2023-04-15T04:53:20.890Z,3.56
2023-04-15T04:55:54.055Z,3.51
2023-04-15T04:58:20.837Z,3.40
2023-04-15T05:00:54.114Z,3.43
2023-04-15T05:03:27.243Z,3.38
2023-04-15T05:06:01.123Z,3.36
2023-04-15T05:08:34.293Z,3.37
2023-04-15T05:11:01.155Z,3.35
2023-04-15T05:13:34.230Z,3.39
2023-04-15T05:16:07.150Z,3.32
2023-04-15T05:18:41.154Z,3.35
2023-04-15T05:21:07.900Z,3.38
2023-04-15T05:23:34.808Z,3.43
2023-04-15T05:26:08.072Z,3.50
2023-04-15T05:28:41.159Z,3.55
2023-04-15T05:31:15.186Z,3.61
2023-04-15T05:33:42.155Z,3.65
2023-04-15T05:36:15.080Z,3.68
2023-04-15T05:38:42.300Z,3.73
2023-04-15T05:41:18.395Z,3.75
2023-04-15T05:43:52.637Z,3.65
2023-04-15T05:46:26.126Z,3.75
2023-04-15T05:48:54.660Z,3.80
2023-04-15T05:51:28.166Z,3.87
2023-04-15T05:53:54.805Z,3.91
2023-04-15T05:56:28.179Z,3.96
2023-04-15T05:58:54.960Z,3.99
2023-04-15T06:01:29.208Z,4.09
2023-04-15T06:03:56.458Z,4.18
2023-04-15T06:06:30.154Z,4.30
2023-04-15T06:08:57.692Z,4.41
2023-04-15T06:11:31.212Z,4.57
2023-04-15T06:13:58.056Z,4.71
2023-04-15T06:16:31.287Z,4.86
2023-04-15T06:19:04.118Z,4.99
2023-04-15T06:21:31.736Z,5.16
2023-04-15T06:24:07.212Z,5.32
2023-04-15T06:26:33.983Z,5.46
2023-04-15T06:29:07.101Z,5.59
2023-04-15T06:31:34.015Z,5.70
2023-04-15T06:34:07.177Z,5.81
2023-04-15T06:36:34.034Z,5.92
2023-04-15T06:39:08.142Z,5.97
2023-04-15T06:41:42.077Z,6.05
2023-04-15T06:44:22.152Z,6.12
2023-04-15T06:46:48.974Z,6.19
2023-04-15T06:49:22.164Z,6.24
2023-04-15T06:51:55.160Z,6.32
2023-04-15T06:54:21.955Z,6.39
2023-04-15T06:56:55.163Z,6.43
2023-04-15T06:59:21.916Z,6.49
2023-04-15T07:01:55.120Z,6.57
2023-04-15T07:04:21.890Z,6.64
2023-04-15T07:06:55.164Z,6.72
2023-04-15T07:09:23.273Z,6.81
2023-04-15T07:11:56.119Z,6.88
2023-04-15T07:14:22.937Z,6.97
2023-04-15T07:16:56.162Z,7.04
2023-04-15T07:19:30.186Z,7.15
2023-04-15T07:22:03.240Z,7.23
2023-04-15T07:24:37.352Z,7.24
2023-04-15T07:27:04.341Z,7.33
2023-04-15T07:29:38.133Z,7.40
2023-04-15T07:32:05.208Z,7.48
2023-04-15T07:34:38.230Z,7.53
2023-04-15T07:37:04.870Z,7.56
2023-04-15T07:39:38.176Z,7.53
2023-04-15T07:42:11.166Z,7.54
2023-04-15T07:44:51.150Z,7.54
2023-04-15T07:47:17.843Z,7.54
2023-04-15T07:49:51.163Z,7.57
2023-04-15T07:52:24.243Z,7.54
2023-04-15T07:54:51.246Z,7.49
2023-04-15T07:57:24.167Z,7.54
2023-04-15T07:59:50.846Z,7.58
2023-04-15T08:02:24.292Z,7.60
2023-04-15T08:04:51.140Z,7.64
2023-04-15T08:07:25.216Z,7.72
2023-04-15T08:09:51.994Z,7.74
2023-04-15T08:12:25.211Z,7.74
2023-04-15T08:14:52.364Z,7.74
2023-04-15T08:17:19.072Z,7.80
2023-04-15T08:19:52.179Z,7.90
2023-04-15T08:22:19.685Z,8.01
2023-04-15T08:24:54.166Z,8.05
2023-04-15T08:27:20.885Z,8.11
2023-04-15T08:29:54.219Z,8.15
2023-04-15T08:32:21.485Z,8.17
2023-04-15T08:34:55.276Z,8.18
2023-04-15T08:37:23.173Z,8.21
2023-04-15T08:39:57.286Z,8.28
2023-04-15T08:42:37.688Z,8.38
2023-04-15T08:45:12.269Z,8.49
2023-04-15T08:47:48.244Z,8.58
2023-04-15T08:50:23.208Z,8.77
2023-04-15T08:52:56.267Z,8.88
2023-04-15T08:55:30.241Z,8.86
2023-04-15T08:57:57.592Z,8.88
2023-04-15T09:00:31.406Z,8.94
2023-04-15T09:03:06.318Z,9.03
2023-04-15T09:05:34.529Z,9.11
2023-04-15T09:08:09.219Z,9.13
2023-04-15T09:10:37.029Z,9.17
2023-04-15T09:13:11.291Z,9.11
2023-04-15T09:15:40.695Z,9.19
2023-04-15T09:18:14.283Z,9.17
2023-04-15T09:20:45.370Z,9.11
2023-04-15T09:23:21.239Z,9.06
2023-04-15T09:25:49.455Z,9.04
2023-04-15T09:28:31.190Z,8.98
2023-04-15T09:31:08.247Z,8.97
2023-04-15T09:33:41.229Z,8.96
2023-04-15T09:36:08.136Z,9.00
2023-04-15T09:38:41.301Z,8.99
2023-04-15T09:41:18.927Z,9.02
2023-04-15T09:43:59.286Z,9.06
2023-04-15T09:46:59.235Z,9.16
2023-04-15T09:49:26.188Z,9.23
2023-04-15T09:52:06.504Z,9.32
2023-04-15T09:54:38.995Z,9.34
2023-04-15T09:57:16.240Z,9.30
2023-04-15T09:59:43.024Z,9.22
2023-04-15T10:02:18.391Z,9.27
2023-04-15T10:04:45.852Z,9.26
2023-04-15T10:07:19.290Z,9.34
2023-04-15T10:09:47.177Z,9.48
2023-04-15T10:12:23.264Z,9.66
2023-04-15T10:14:56.593Z,9.83
2023-04-15T10:17:31.817Z,9.92
2023-04-15T10:20:09.567Z,9.95
2023-04-15T10:22:44.299Z,9.90
2023-04-15T10:25:12.372Z,9.87
2023-04-15T10:27:49.280Z,9.81
2023-04-15T10:30:23.357Z,9.80
2023-04-15T10:32:50.650Z,9.78
2023-04-15T10:35:25.343Z,9.77
2023-04-15T10:37:52.088Z,9.76
2023-04-15T10:40:39.318Z,9.78
2023-04-15T10:43:39.284Z,9.81
2023-04-15T10:46:13.295Z,9.79
2023-04-15T10:48:46.947Z,9.80
2023-04-15T10:51:21.274Z,9.77
2023-04-15T10:53:48.350Z,9.77
2023-04-15T10:56:24.259Z,9.74
2023-04-15T10:58:51.392Z,9.66
2023-04-15T11:01:30.406Z,9.75
2023-04-15T11:03:57.283Z,9.81
2023-04-15T11:06:51.271Z,9.93
2023-04-15T11:09:41.252Z,10.02
2023-04-15T11:12:09.987Z,10.11
2023-04-15T11:14:47.252Z,10.07
2023-04-15T11:17:14.001Z,10.00
2023-04-15T11:19:47.257Z,9.83
2023-04-15T11:22:14.027Z,9.73
2023-04-15T11:24:57.287Z,9.70
2023-04-15T11:27:24.262Z,9.61
2023-04-15T11:29:57.352Z,9.51
2023-04-15T11:32:24.207Z,9.47
2023-04-15T11:34:59.278Z,9.46
2023-04-15T11:37:30.349Z,9.52
2023-04-15T11:40:03.286Z,9.53
2023-04-15T11:42:39.449Z,9.61
2023-04-15T11:45:23.335Z,9.67
2023-04-15T11:47:50.259Z,9.74
2023-04-15T11:50:24.384Z,9.77
2023-04-15T11:52:59.096Z,9.81
2023-04-15T11:55:33.522Z,9.92
2023-04-15T11:58:17.101Z,10.04
2023-04-15T12:01:07.447Z,10.00
2023-04-15T12:03:38.757Z,9.96
2023-04-15T12:06:32.357Z,9.83
2023-04-15T12:09:00.551Z,9.77
2023-04-15T12:11:33.431Z,9.71
2023-04-15T12:14:09.572Z,9.67
2023-04-15T12:16:48.469Z,9.53
2023-04-15T12:19:36.494Z,9.47
2023-04-15T12:22:17.283Z,9.44
2023-04-15T12:24:48.043Z,9.53
2023-04-15T12:27:33.342Z,9.56
2023-04-15T12:30:06.627Z,9.56
2023-04-15T12:32:43.633Z,9.51
2023-04-15T12:35:10.669Z,9.50
2023-04-15T12:37:44.369Z,9.53
2023-04-15T12:40:11.697Z,9.55
2023-04-15T12:42:38.404Z,9.53
2023-04-15T12:45:12.423Z,9.55
2023-04-15T12:47:45.439Z,9.56
2023-04-15T12:50:12.174Z,9.59
2023-04-15T12:52:45.348Z,9.65
2023-04-15T12:55:12.467Z,9.75
2023-04-15T12:57:46.361Z,9.74
2023-04-15T13:00:20.297Z,9.76
2023-04-15T13:02:47.340Z,9.67
2023-04-15T13:05:22.435Z,9.65
2023-04-15T13:07:49.115Z,9.64
2023-04-15T13:10:22.385Z,9.66
2023-04-15T13:12:50.731Z,9.69
2023-04-15T13:15:20.798Z,9.71
2023-04-15T13:17:54.400Z,9.75
2023-04-15T13:20:21.439Z,9.76
2023-04-15T13:22:55.369Z,9.74
2023-04-15T13:25:22.410Z,9.73
2023-04-15T13:27:56.311Z,9.68
2023-04-15T13:30:23.066Z,9.67
2023-04-15T13:32:57.466Z,9.63
2023-04-15T13:35:24.338Z,9.60
2023-04-15T13:37:57.334Z,9.58
2023-04-15T13:40:24.109Z,9.46
2023-04-15T13:43:05.351Z,9.44
2023-04-15T13:45:39.283Z,9.38
2023-04-15T13:48:13.365Z,9.34
2023-04-15T13:50:48.417Z,9.29
2023-04-15T13:53:21.366Z,9.32
2023-04-15T13:56:00.791Z,9.28
2023-04-15T13:58:34.534Z,9.26
2023-04-15T14:01:03.258Z,9.21
2023-04-15T14:03:38.643Z,9.16
2023-04-15T14:06:13.390Z,9.13
2023-04-15T14:08:40.263Z,9.10
2023-04-15T14:11:13.368Z,9.08
2023-04-15T14:13:40.281Z,9.07
2023-04-15T14:16:13.426Z,9.07
2023-04-15T14:18:40.727Z,9.11
2023-04-15T14:21:14.408Z,9.07
2023-04-15T14:23:41.290Z,9.02
2023-04-15T14:26:14.447Z,9.09
2023-04-15T14:28:41.525Z,9.04
2023-04-15T14:31:14.481Z,9.04
2023-04-15T14:33:41.734Z,9.02
2023-04-15T14:36:09.606Z,9.02
2023-04-15T14:38:48.492Z,8.98
2023-04-15T14:41:16.331Z,8.94
2023-04-15T14:43:49.359Z,8.97
2023-04-15T14:46:22.532Z,8.94
2023-04-15T14:48:56.446Z,8.97
2023-04-15T14:51:23.440Z,8.93
2023-04-15T14:53:56.433Z,8.89
2023-04-15T14:56:23.284Z,8.85
2023-04-15T14:58:57.385Z,8.84
2023-04-15T15:01:24.180Z,8.82
2023-04-15T15:03:57.520Z,8.77
2023-04-15T15:06:30.446Z,8.73
2023-04-15T15:08:57.266Z,8.68
2023-04-15T15:11:30.459Z,8.65
2023-04-15T15:13:57.439Z,8.59
2023-04-15T15:16:31.382Z,8.57
2023-04-15T15:18:58.249Z,8.55
2023-04-15T15:21:31.491Z,8.49
2023-04-15T15:23:58.339Z,8.45
2023-04-15T15:26:31.502Z,8.41
2023-04-15T15:29:05.529Z,8.41
2023-04-15T15:31:39.489Z,8.38
2023-04-15T15:34:12.420Z,8.33
2023-04-15T15:36:39.184Z,8.33
2023-04-15T15:39:12.498Z,8.27
2023-04-15T15:41:39.206Z,8.28
2023-04-15T15:44:19.448Z,8.31
2023-04-15T15:46:46.469Z,8.31
2023-04-15T15:49:20.420Z,8.27
2023-04-15T15:51:47.255Z,8.27
2023-04-15T15:54:20.421Z,8.26
2023-04-15T15:56:47.297Z,8.24
2023-04-15T15:59:20.459Z,8.25
2023-04-15T16:01:48.516Z,8.22
2023-04-15T16:04:22.732Z,8.23
2023-04-15T16:06:56.479Z,8.19
2023-04-15T16:09:23.219Z,8.22
2023-04-15T16:11:56.398Z,8.21
2023-04-15T16:14:25.378Z,8.23
2023-04-15T16:16:59.436Z,8.23
2023-04-15T16:19:26.236Z,8.21
2023-04-15T16:22:00.431Z,8.21
2023-04-15T16:24:27.787Z,8.17
2023-04-15T16:27:01.410Z,8.13
2023-04-15T16:29:28.773Z,8.16
2023-04-15T16:32:02.525Z,8.15
2023-04-15T16:34:29.395Z,8.16
2023-04-15T16:37:02.449Z,8.14
2023-04-15T16:39:35.427Z,8.13
2023-04-15T16:42:09.492Z,8.07
2023-04-15T16:44:42.513Z,8.10
2023-04-15T16:47:11.526Z,8.07
2023-04-15T16:49:45.468Z,8.02
2023-04-15T16:52:12.213Z,8.05
2023-04-15T16:54:48.523Z,8.05
2023-04-15T16:57:15.303Z,8.06
2023-04-15T16:59:48.474Z,8.01
2023-04-15T17:02:21.745Z,8.03
2023-04-15T17:04:55.466Z,8.00
2023-04-15T17:07:22.230Z,7.88
2023-04-15T17:09:55.547Z,7.98
2023-04-15T17:12:22.434Z,7.93
2023-04-15T17:14:49.196Z,7.93
2023-04-15T17:17:23.674Z,7.92
2023-04-15T17:19:50.541Z,7.88
2023-04-15T17:22:23.467Z,7.88
2023-04-15T17:24:50.570Z,7.80
2023-04-15T17:27:23.478Z,7.82
2023-04-15T17:29:50.136Z,7.84
2023-04-15T17:32:23.537Z,7.80
2023-04-15T17:34:51.515Z,7.82
2023-04-15T17:37:25.438Z,7.84
2023-04-15T17:39:52.482Z,7.80
2023-04-15T17:42:25.428Z,7.70
2023-04-15T17:45:05.452Z,7.78
2023-04-15T17:47:38.628Z,7.78
2023-04-15T17:50:12.506Z,7.76
2023-04-15T17:52:39.330Z,7.73
2023-04-15T17:55:13.548Z,7.72
2023-04-15T17:57:40.513Z,7.67
2023-04-15T18:00:16.553Z,7.63
2023-04-15T18:02:43.563Z,7.67
2023-04-15T18:05:17.625Z,7.62
2023-04-15T18:07:44.891Z,7.56
2023-04-15T18:10:12.015Z,7.56
2023-04-15T18:12:45.517Z,7.53
2023-04-15T18:15:12.460Z,7.51
2023-04-15T18:17:45.562Z,7.43
2023-04-15T18:20:13.151Z,7.45
2023-04-15T18:22:46.533Z,7.44
2023-04-15T18:25:13.588Z,7.40
2023-04-15T18:27:47.560Z,7.39
2023-04-15T18:30:14.364Z,7.37
2023-04-15T18:32:48.719Z,7.33
2023-04-15T18:35:17.368Z,7.32
2023-04-15T18:37:50.505Z,7.28
2023-04-15T18:40:23.552Z,7.29
2023-04-15T18:42:56.595Z,7.28
2023-04-15T18:45:31.182Z,7.27
2023-04-15T18:48:04.594Z,7.24
2023-04-15T18:50:37.491Z,7.24
2023-04-15T18:53:04.285Z,7.24
2023-04-15T18:55:38.568Z,7.28
2023-04-15T18:58:06.556Z,7.28
2023-04-15T19:00:45.561Z,7.28
2023-04-15T19:03:12.398Z,7.21
2023-04-15T19:05:46.621Z,7.26
2023-04-15T19:08:13.574Z,7.28
2023-04-15T19:10:47.671Z,7.30
2023-04-15T19:13:20.502Z,7.29
2023-04-15T19:15:53.575Z,7.28
2023-04-15T19:18:28.621Z,7.28
2023-04-15T19:20:56.836Z,7.31
2023-04-15T19:23:30.523Z,7.32
2023-04-15T19:25:57.683Z,7.32
2023-04-15T19:28:31.539Z,7.30
2023-04-15T19:30:58.796Z,7.31
2023-04-15T19:33:37.505Z,7.32
2023-04-15T19:36:12.558Z,7.26
2023-04-15T19:38:45.536Z,7.30
2023-04-15T19:41:12.328Z,7.32
2023-04-15T19:43:52.669Z,7.33
2023-04-15T19:46:27.212Z,7.32
2023-04-15T19:49:02.567Z,7.31
2023-04-15T19:51:29.859Z,7.31
2023-04-15T19:54:03.524Z,7.27
2023-04-15T19:56:31.737Z,7.34
2023-04-15T19:59:07.882Z,7.32
2023-04-15T20:01:34.777Z,7.32
2023-04-15T20:04:09.675Z,7.34
2023-04-15T20:06:43.617Z,7.34
2023-04-15T20:09:11.404Z,7.36
2023-04-15T20:12:46.094Z,7.34
2023-04-15T20:14:37.513Z,7.33
2023-04-15T20:17:10.638Z,7.33
2023-04-15T20:19:37.413Z,7.34
2023-04-15T20:22:10.644Z,7.30
2023-04-15T20:24:37.485Z,7.34
2023-04-15T20:27:10.711Z,7.35
2023-04-15T20:29:38.117Z,7.35
2023-04-15T20:32:05.166Z,7.35
2023-04-15T20:34:38.533Z,7.36
2023-04-15T20:37:05.817Z,7.34
2023-04-15T20:39:38.563Z,7.35
2023-04-15T20:42:05.325Z,7.34
2023-04-15T20:44:38.631Z,7.33
2023-04-15T20:47:12.705Z,7.33
2023-04-15T20:49:46.536Z,7.33
2023-04-15T20:52:19.591Z,7.31
2023-04-15T20:54:53.717Z,7.32
2023-04-15T20:57:20.629Z,7.33
2023-04-15T20:59:53.672Z,7.33
2023-04-15T21:02:20.488Z,7.32
2023-04-15T21:04:53.563Z,7.32
2023-04-15T21:07:26.641Z,7.32
2023-04-15T21:09:53.409Z,7.32
2023-04-15T21:12:26.551Z,7.32
2023-04-15T21:14:53.384Z,7.26
2023-04-15T21:17:26.584Z,7.28
2023-04-15T21:19:53.418Z,7.31
2023-04-15T21:22:26.679Z,7.30
2023-04-15T21:24:53.516Z,7.25
2023-04-15T21:27:26.597Z,7.28
2023-04-15T21:29:53.393Z,7.27
2023-04-15T21:32:26.658Z,7.28
2023-04-15T21:34:53.425Z,7.25
2023-04-15T21:37:20.210Z,7.26
2023-04-15T21:39:53.592Z,7.21
2023-04-15T21:42:20.407Z,7.26
2023-04-15T21:44:53.627Z,7.25
2023-04-15T21:47:27.130Z,7.25
2023-04-15T21:50:00.626Z,7.27
2023-04-15T21:52:27.407Z,7.27
2023-04-15T21:55:00.610Z,7.27
2023-04-15T21:57:27.428Z,7.29
2023-04-15T22:00:00.612Z,7.28
2023-04-15T22:02:27.660Z,7.30
2023-04-15T22:05:00.638Z,7.24
2023-04-15T22:07:27.380Z,7.28
2023-04-15T22:10:00.615Z,7.29
2023-04-15T22:12:33.560Z,7.28
2023-04-15T22:15:07.579Z,7.28
2023-04-15T22:17:40.714Z,7.27
2023-04-15T22:20:08.331Z,7.28
2023-04-15T22:22:48.703Z,7.30
2023-04-15T22:25:21.299Z,7.28
2023-04-15T22:27:54.632Z,7.29
2023-04-15T22:30:21.566Z,7.31
2023-04-15T22:33:01.681Z,7.31
2023-04-15T22:35:28.619Z,7.29
2023-04-15T22:38:01.661Z,7.30
2023-04-15T22:40:29.138Z,7.30
2023-04-15T22:42:55.953Z,7.29
2023-04-15T22:45:29.585Z,7.27
2023-04-15T22:48:03.007Z,7.29
2023-04-15T22:50:36.605Z,7.28
2023-04-15T22:53:03.339Z,7.29
2023-04-15T22:55:36.579Z,7.29
2023-04-15T22:58:03.433Z,7.30
2023-04-15T23:00:36.590Z,7.27
2023-04-15T23:03:03.452Z,7.31
2023-04-15T23:05:36.741Z,7.31
2023-04-15T23:08:03.531Z,7.32
2023-04-15T23:10:36.636Z,7.33
2023-04-15T23:13:09.641Z,7.34
2023-04-15T23:15:43.707Z,7.34
2023-04-15T23:18:10.706Z,7.34
2023-04-15T23:20:43.705Z,7.34
2023-04-15T23:23:16.694Z,7.35
2023-04-15T23:25:49.843Z,7.37
2023-04-15T23:28:22.643Z,7.37
2023-04-15T23:30:50.327Z,7.38
2023-04-15T23:33:23.680Z,7.37
2023-04-15T23:35:50.766Z,7.36
2023-04-15T23:38:23.694Z,7.39
2023-04-15T23:40:53.357Z,7.40
2023-04-15T23:43:26.656Z,7.41
2023-04-15T23:45:59.807Z,7.39
2023-04-15T23:48:39.613Z,7.40
2023-04-15T23:51:13.733Z,7.41
2023-04-15T23:53:40.856Z,7.42
2023-04-15T23:56:14.697Z,7.44
2023-04-15T23:58:48.177Z,7.46
